createdAt,value
2019-04-27T00:00:04.470Z,976.37
2019-04-27T00:01:11.466Z,976.43
2019-04-27T00:02:06.228Z,976.43
2019-04-27T00:03:06.744Z,976.49
2019-04-27T00:04:05.302Z,976.46
2019-04-27T00:05:04.707Z,976.60
2019-04-27T00:06:08.792Z,976.49
2019-04-27T00:07:04.500Z,976.32
2019-04-27T00:08:05.074Z,976.41
2019-04-27T00:09:11.554Z,976.26
2019-04-27T00:10:05.438Z,976.46
2019-04-27T00:11:09.120Z,976.26
2019-04-27T00:12:06.135Z,976.43
2019-04-27T00:13:06.157Z,976.24
2019-04-27T00:14:05.428Z,976.32
2019-04-27T00:15:04.525Z,976.38
2019-04-27T00:16:11.033Z,976.38
2019-04-27T00:17:04.986Z,976.32
2019-04-27T00:18:04.780Z,976.24
2019-04-27T00:19:05.215Z,976.41
2019-04-27T00:20:05.418Z,976.18
2019-04-27T00:21:04.522Z,976.24
2019-04-27T00:22:05.156Z,976.15
2019-04-27T00:23:05.358Z,976.24
2019-04-27T00:24:05.028Z,976.12
2019-04-27T00:25:05.299Z,976.07
2019-04-27T00:26:04.835Z,976.12
2019-04-27T00:27:04.851Z,976.01
2019-04-27T00:28:05.907Z,975.98
2019-04-27T00:29:04.985Z,976.07
2019-04-27T00:30:04.836Z,975.95
2019-04-27T00:31:05.060Z,975.95
2019-04-27T00:32:04.724Z,975.98
2019-04-27T00:33:05.752Z,975.95
2019-04-27T00:34:05.519Z,976.04
2019-04-27T00:35:04.893Z,975.98
2019-04-27T00:36:05.175Z,976.07
2019-04-27T00:37:05.236Z,975.98
2019-04-27T00:38:05.536Z,976.01
2019-04-27T00:39:05.653Z,976.04
2019-04-27T00:40:05.382Z,975.95
2019-04-27T00:41:04.580Z,975.95
2019-04-27T00:42:04.633Z,976.01
2019-04-27T00:43:10.027Z,975.98
2019-04-27T00:44:05.431Z,976.01
2019-04-27T00:45:05.840Z,975.98
2019-04-27T00:46:04.567Z,975.93
2019-04-27T00:47:05.228Z,976.10
2019-04-27T00:48:04.752Z,975.93
2019-04-27T00:49:04.910Z,975.98
2019-04-27T00:50:05.151Z,976.07
2019-04-27T00:51:05.265Z,976.01
2019-04-27T00:52:05.378Z,975.98
2019-04-27T00:53:05.375Z,975.93
2019-04-27T00:54:05.073Z,975.98
2019-04-27T00:55:04.810Z,975.96
2019-04-27T00:56:05.066Z,975.93
2019-04-27T00:57:05.326Z,976.04
2019-04-27T00:58:05.491Z,975.96
2019-04-27T00:59:04.743Z,975.78
2019-04-27T01:00:05.591Z,975.73
2019-04-27T01:01:05.346Z,975.90
2019-04-27T01:02:04.776Z,975.76
2019-04-27T01:03:10.413Z,975.84
2019-04-27T01:04:04.954Z,975.90
2019-04-27T01:05:06.293Z,975.96
2019-04-27T01:06:05.276Z,975.96
2019-04-27T01:07:05.094Z,975.90
2019-04-27T01:08:05.384Z,975.87
2019-04-27T01:09:04.866Z,975.96
2019-04-27T01:10:05.697Z,975.90
2019-04-27T01:11:05.440Z,975.96
2019-04-27T01:12:04.583Z,976.07
2019-04-27T01:13:05.175Z,975.96
2019-04-27T01:14:05.334Z,975.96
2019-04-27T01:15:04.711Z,976.07
2019-04-27T01:16:04.842Z,975.79
2019-04-27T01:17:09.214Z,975.81
2019-04-27T01:18:15.301Z,975.90
2019-04-27T01:19:05.289Z,975.78
2019-04-27T01:20:04.645Z,975.84
2019-04-27T01:21:04.944Z,975.73
2019-04-27T01:22:05.090Z,975.76
2019-04-27T01:23:04.786Z,975.90
2019-04-27T01:24:05.893Z,975.67
2019-04-27T01:25:05.477Z,975.75
2019-04-27T01:26:05.238Z,975.78
2019-04-27T01:27:04.782Z,975.95
2019-04-27T01:28:05.214Z,975.92
2019-04-27T01:29:04.673Z,975.98
2019-04-27T01:30:05.290Z,975.84
2019-04-27T01:31:05.522Z,975.72
2019-04-27T01:32:05.511Z,975.84
2019-04-27T01:33:04.580Z,975.75
2019-04-27T01:34:04.868Z,975.67
2019-04-27T01:35:08.606Z,975.90
2019-04-27T01:36:05.256Z,975.72
2019-04-27T01:37:04.981Z,975.64
2019-04-27T01:38:05.447Z,975.64
2019-04-27T01:39:05.218Z,975.72
2019-04-27T01:40:05.352Z,975.67
2019-04-27T01:41:04.789Z,975.81
2019-04-27T01:42:05.105Z,975.64
2019-04-27T01:43:05.093Z,975.64
2019-04-27T01:44:05.609Z,975.70
2019-04-27T01:45:05.367Z,975.67
2019-04-27T01:46:04.711Z,975.72
2019-04-27T01:47:04.940Z,975.61
2019-04-27T01:48:05.002Z,975.67
2019-04-27T01:49:04.563Z,975.61
2019-04-27T01:50:05.137Z,975.55
2019-04-27T01:51:05.231Z,975.58
2019-04-27T01:52:05.490Z,975.52
2019-04-27T01:53:05.450Z,975.52
2019-04-27T01:54:04.726Z,975.61
2019-04-27T01:55:04.851Z,975.50
2019-04-27T01:56:05.076Z,975.67
2019-04-27T01:57:05.111Z,975.61
2019-04-27T01:58:04.707Z,975.69
2019-04-27T01:59:04.775Z,975.67
2019-04-27T02:00:04.858Z,975.75
2019-04-27T02:01:10.058Z,975.67
2019-04-27T02:02:05.538Z,975.67
2019-04-27T02:03:04.536Z,975.67
2019-04-27T02:04:04.783Z,975.75
2019-04-27T02:05:04.895Z,975.75
2019-04-27T02:06:04.889Z,975.61
2019-04-27T02:07:05.162Z,975.72
2019-04-27T02:08:05.262Z,975.70
2019-04-27T02:09:05.298Z,975.70
2019-04-27T02:10:05.099Z,975.70
2019-04-27T02:11:05.066Z,975.70
2019-04-27T02:12:05.137Z,975.78
2019-04-27T02:13:04.569Z,975.61
2019-04-27T02:14:04.852Z,975.69
2019-04-27T02:15:04.912Z,975.61
2019-04-27T02:16:05.120Z,975.61
2019-04-27T02:17:04.919Z,975.53
2019-04-27T02:18:05.193Z,975.55
2019-04-27T02:19:05.541Z,975.53
2019-04-27T02:20:04.518Z,975.50
2019-04-27T02:21:09.720Z,975.64
2019-04-27T02:22:05.191Z,975.52
2019-04-27T02:23:05.533Z,975.50
2019-04-27T02:24:05.093Z,975.50
2019-04-27T02:25:05.112Z,975.52
2019-04-27T02:26:05.319Z,975.49
2019-04-27T02:27:04.609Z,975.41
2019-04-27T02:28:09.692Z,975.55
2019-04-27T02:29:05.448Z,975.55
2019-04-27T02:30:04.788Z,975.49
2019-04-27T02:31:05.221Z,975.61
2019-04-27T02:32:04.766Z,975.55
2019-04-27T02:33:05.388Z,975.64
2019-04-27T02:34:04.590Z,975.61
2019-04-27T02:35:04.860Z,975.46
2019-04-27T02:36:05.318Z,975.58
2019-04-27T02:37:05.481Z,975.64
2019-04-27T02:38:05.120Z,975.69
2019-04-27T02:39:05.291Z,975.61
2019-04-27T02:40:05.310Z,975.75
2019-04-27T02:41:04.723Z,975.61
2019-04-27T02:42:04.815Z,975.75
2019-04-27T02:43:10.804Z,975.55
2019-04-27T02:44:05.263Z,975.61
2019-04-27T02:45:05.375Z,975.55
2019-04-27T02:46:04.658Z,975.64
2019-04-27T02:47:04.795Z,975.46
2019-04-27T02:48:05.457Z,975.61
2019-04-27T02:49:10.173Z,975.64
2019-04-27T02:50:05.366Z,975.52
2019-04-27T02:51:05.432Z,975.64
2019-04-27T02:52:05.099Z,975.69
2019-04-27T02:53:05.113Z,975.61
2019-04-27T02:54:05.087Z,975.67
2019-04-27T02:55:05.143Z,975.78
2019-04-27T02:56:04.564Z,975.67
2019-04-27T02:57:05.320Z,975.69
2019-04-27T02:58:05.441Z,975.64
2019-04-27T02:59:04.579Z,975.69
2019-04-27T03:00:04.833Z,975.78
2019-04-27T03:01:04.998Z,975.78
2019-04-27T03:02:05.064Z,975.70
2019-04-27T03:03:10.810Z,975.67
2019-04-27T03:04:05.190Z,975.70
2019-04-27T03:05:04.573Z,975.67
2019-04-27T03:06:04.939Z,975.67
2019-04-27T03:07:05.047Z,975.64
2019-04-27T03:08:06.148Z,975.78
2019-04-27T03:09:04.899Z,975.64
2019-04-27T03:10:05.217Z,975.61
2019-04-27T03:11:04.738Z,975.72
2019-04-27T03:12:04.724Z,975.64
2019-04-27T03:13:04.779Z,975.75
2019-04-27T03:14:04.982Z,975.72
2019-04-27T03:15:05.114Z,975.67
2019-04-27T03:16:05.191Z,975.70
2019-04-27T03:17:04.754Z,975.72
2019-04-27T03:18:04.994Z,975.72
2019-04-27T03:19:20.922Z,975.61
2019-04-27T03:20:05.298Z,975.75
2019-04-27T03:21:04.539Z,975.64
2019-04-27T03:22:04.647Z,975.70
2019-04-27T03:23:04.852Z,975.64
2019-04-27T03:24:04.943Z,975.61
2019-04-27T03:25:04.871Z,975.67
2019-04-27T03:26:05.356Z,975.61
2019-04-27T03:27:04.967Z,975.67
2019-04-27T03:28:05.180Z,975.56
2019-04-27T03:29:04.681Z,975.70
2019-04-27T03:30:04.705Z,975.73
2019-04-27T03:31:05.210Z,975.76
2019-04-27T03:32:05.268Z,975.64
2019-04-27T03:33:04.716Z,975.59
2019-04-27T03:34:11.798Z,975.67
2019-04-27T03:35:04.575Z,975.50
2019-04-27T03:36:05.181Z,975.56
2019-04-27T03:37:05.314Z,975.59
2019-04-27T03:38:05.693Z,975.59
2019-04-27T03:39:06.091Z,975.59
2019-04-27T03:40:04.817Z,975.50
2019-04-27T03:41:05.064Z,975.61
2019-04-27T03:42:05.413Z,975.56
2019-04-27T03:43:11.995Z,975.59
2019-04-27T03:44:05.433Z,975.73
2019-04-27T03:45:04.581Z,975.50
2019-04-27T03:46:05.126Z,975.67
2019-04-27T03:47:05.486Z,975.45
2019-04-27T03:48:05.430Z,975.56
2019-04-27T03:49:05.271Z,975.50
2019-04-27T03:50:05.350Z,975.65
2019-04-27T03:51:05.302Z,975.56
2019-04-27T03:52:05.167Z,975.59
2019-04-27T03:53:05.051Z,975.67
2019-04-27T03:54:05.101Z,975.62
2019-04-27T03:55:04.816Z,975.65
2019-04-27T03:56:04.939Z,975.53
2019-04-27T03:57:05.154Z,975.56
2019-04-27T03:58:04.759Z,975.76
2019-04-27T03:59:05.211Z,975.56
2019-04-27T04:00:05.376Z,975.59
2019-04-27T04:01:05.386Z,975.56
2019-04-27T04:02:04.669Z,975.45
2019-04-27T04:03:11.095Z,975.54
2019-04-27T04:04:04.617Z,975.62
2019-04-27T04:05:05.297Z,975.68
2019-04-27T04:06:04.939Z,975.65
2019-04-27T04:07:05.299Z,975.56
2019-04-27T04:08:04.615Z,975.54
2019-04-27T04:09:04.595Z,975.62
2019-04-27T04:10:05.391Z,975.56
2019-04-27T04:11:04.632Z,975.59
2019-04-27T04:12:04.936Z,975.51
2019-04-27T04:13:04.951Z,975.65
2019-04-27T04:14:04.782Z,975.62
2019-04-27T04:15:05.051Z,975.59
2019-04-27T04:16:10.562Z,975.56
2019-04-27T04:17:05.282Z,975.59
2019-04-27T04:18:04.557Z,975.56
2019-04-27T04:19:04.721Z,975.59
2019-04-27T04:20:04.886Z,975.73
2019-04-27T04:21:04.889Z,975.62
2019-04-27T04:22:05.178Z,975.48
2019-04-27T04:23:05.753Z,975.59
2019-04-27T04:24:04.700Z,975.62
2019-04-27T04:25:07.237Z,975.56
2019-04-27T04:26:04.542Z,975.48
2019-04-27T04:27:04.933Z,975.76
2019-04-27T04:28:04.871Z,975.45
2019-04-27T04:29:05.414Z,975.56
2019-04-27T04:30:04.634Z,975.56
2019-04-27T04:31:04.948Z,975.59
2019-04-27T04:32:05.338Z,975.59
2019-04-27T04:33:05.513Z,975.56
2019-04-27T04:34:04.858Z,975.76
2019-04-27T04:35:05.365Z,975.62
2019-04-27T04:36:04.981Z,975.68
2019-04-27T04:37:05.188Z,975.85
2019-04-27T04:38:05.207Z,975.62
2019-04-27T04:39:05.425Z,975.59
2019-04-27T04:40:04.612Z,975.62
2019-04-27T04:41:05.047Z,975.65
2019-04-27T04:42:05.344Z,975.70
2019-04-27T04:43:05.533Z,975.62
2019-04-27T04:44:05.556Z,975.65
2019-04-27T04:45:04.644Z,975.82
2019-04-27T04:46:09.661Z,975.73
2019-04-27T04:47:05.544Z,975.82
2019-04-27T04:48:05.444Z,975.73
2019-04-27T04:49:04.786Z,975.76
2019-04-27T04:50:14.894Z,975.79
2019-04-27T04:51:04.904Z,975.82
2019-04-27T04:52:10.370Z,975.79
2019-04-27T04:53:04.872Z,975.76
2019-04-27T04:54:04.706Z,975.84
2019-04-27T04:55:04.660Z,975.85
2019-04-27T04:56:05.486Z,975.85
2019-04-27T04:57:04.917Z,975.79
2019-04-27T04:58:05.051Z,975.79
2019-04-27T04:59:05.332Z,975.76
2019-04-27T05:00:05.518Z,975.82
2019-04-27T05:01:04.850Z,975.85
2019-04-27T05:02:04.972Z,975.79
2019-04-27T05:03:04.996Z,975.96
2019-04-27T05:04:05.543Z,975.90
2019-04-27T05:05:05.227Z,975.90
2019-04-27T05:06:04.628Z,975.82
2019-04-27T05:07:05.082Z,975.82
2019-04-27T05:08:05.230Z,975.81
2019-04-27T05:09:05.578Z,975.93
2019-04-27T05:10:05.227Z,975.87
2019-04-27T05:11:05.440Z,975.93
2019-04-27T05:12:10.599Z,975.90
2019-04-27T05:13:04.719Z,975.93
2019-04-27T05:14:05.211Z,975.93
2019-04-27T05:15:05.350Z,975.93
2019-04-27T05:16:05.180Z,975.81
2019-04-27T05:17:05.296Z,975.92
2019-04-27T05:18:05.557Z,975.75
2019-04-27T05:19:05.066Z,975.92
2019-04-27T05:20:05.145Z,975.95
2019-04-27T05:21:05.758Z,975.98
2019-04-27T05:22:04.850Z,975.98
2019-04-27T05:23:05.334Z,975.89
2019-04-27T05:24:04.652Z,975.83
2019-04-27T05:25:05.454Z,975.83
2019-04-27T05:26:04.625Z,975.80
2019-04-27T05:27:06.033Z,975.92
2019-04-27T05:28:05.012Z,975.92
2019-04-27T05:29:05.298Z,975.92
2019-04-27T05:30:06.160Z,975.83
2019-04-27T05:31:04.754Z,975.83
2019-04-27T05:32:05.128Z,975.75
2019-04-27T05:33:05.402Z,975.80
2019-04-27T05:34:07.220Z,975.94
2019-04-27T05:35:05.010Z,975.83
2019-04-27T05:36:06.764Z,975.88
2019-04-27T05:37:05.386Z,975.88
2019-04-27T05:38:10.993Z,975.91
2019-04-27T05:39:04.785Z,975.83
2019-04-27T05:40:05.404Z,975.80
2019-04-27T05:41:05.452Z,975.80
2019-04-27T05:42:04.588Z,975.83
2019-04-27T05:43:05.935Z,975.80
2019-04-27T05:44:11.143Z,975.82
2019-04-27T05:45:05.339Z,975.88
2019-04-27T05:46:05.564Z,975.74
2019-04-27T05:47:09.847Z,975.85
2019-04-27T05:48:04.719Z,975.99
2019-04-27T05:49:07.607Z,975.88
2019-04-27T05:50:05.537Z,975.79
2019-04-27T05:51:04.611Z,975.65
2019-04-27T05:52:14.484Z,975.82
2019-04-27T05:53:05.009Z,975.82
2019-04-27T05:54:05.423Z,975.82
2019-04-27T05:55:04.529Z,975.68
2019-04-27T05:56:04.800Z,975.67
2019-04-27T05:57:05.232Z,975.73
2019-04-27T05:58:04.788Z,975.65
2019-04-27T05:59:05.348Z,975.67
2019-04-27T06:00:09.900Z,975.70
2019-04-27T06:01:05.345Z,975.76
2019-04-27T06:02:04.946Z,975.76
2019-04-27T06:03:05.303Z,975.56
2019-04-27T06:04:04.630Z,975.59
2019-04-27T06:05:05.063Z,975.56
2019-04-27T06:06:05.248Z,975.67
2019-04-27T06:07:05.346Z,975.58
2019-04-27T06:08:04.721Z,975.67
2019-04-27T06:09:05.012Z,975.78
2019-04-27T06:10:05.183Z,975.64
2019-04-27T06:11:05.421Z,975.64
2019-04-27T06:12:04.764Z,975.44
2019-04-27T06:13:05.047Z,975.61
2019-04-27T06:14:10.101Z,975.58
2019-04-27T06:15:05.154Z,975.61
2019-04-27T06:16:05.275Z,975.58
2019-04-27T06:17:05.666Z,975.69
2019-04-27T06:18:04.867Z,975.60
2019-04-27T06:19:05.156Z,975.57
2019-04-27T06:20:05.295Z,975.69
2019-04-27T06:21:05.479Z,975.72
2019-04-27T06:22:04.822Z,975.66
2019-04-27T06:23:05.173Z,975.60
2019-04-27T06:24:04.833Z,975.63
2019-04-27T06:25:05.396Z,975.60
2019-04-27T06:26:04.807Z,975.63
2019-04-27T06:27:04.617Z,975.77
2019-04-27T06:28:05.027Z,975.74
2019-04-27T06:29:05.249Z,975.71
2019-04-27T06:30:05.387Z,975.74
2019-04-27T06:31:04.528Z,975.74
2019-04-27T06:32:04.881Z,975.62
2019-04-27T06:33:04.702Z,975.76
2019-04-27T06:34:04.927Z,975.79
2019-04-27T06:35:05.221Z,975.79
2019-04-27T06:36:04.999Z,975.59
2019-04-27T06:37:04.721Z,975.62
2019-04-27T06:38:04.822Z,975.67
2019-04-27T06:39:05.030Z,975.64
2019-04-27T06:40:05.102Z,975.76
2019-04-27T06:41:05.469Z,975.67
2019-04-27T06:42:19.080Z,975.70
2019-04-27T06:43:10.348Z,975.61
2019-04-27T06:44:04.882Z,975.64
2019-04-27T06:45:05.174Z,975.67
2019-04-27T06:46:04.722Z,975.61
2019-04-27T06:47:05.204Z,975.49
2019-04-27T06:48:05.461Z,975.66
2019-04-27T06:49:04.614Z,975.69
2019-04-27T06:50:05.069Z,975.63
2019-04-27T06:51:06.483Z,975.66
2019-04-27T06:52:05.050Z,975.57
2019-04-27T06:53:04.540Z,975.57
2019-04-27T06:54:05.110Z,975.71
2019-04-27T06:55:06.722Z,975.65
2019-04-27T06:56:05.848Z,975.77
2019-04-27T06:57:05.431Z,975.62
2019-04-27T06:58:04.585Z,975.73
2019-04-27T06:59:05.207Z,975.88
2019-04-27T07:00:05.455Z,975.73
2019-04-27T07:01:04.830Z,975.82
2019-04-27T07:02:04.896Z,975.67
2019-04-27T07:03:04.710Z,975.84
2019-04-27T07:04:05.798Z,975.87
2019-04-27T07:05:04.745Z,975.76
2019-04-27T07:06:05.108Z,975.90
2019-04-27T07:07:05.564Z,975.75
2019-04-27T07:08:04.737Z,975.72
2019-04-27T07:09:05.229Z,975.81
2019-04-27T07:10:04.644Z,975.86
2019-04-27T07:11:05.086Z,975.83
2019-04-27T07:12:05.348Z,975.80
2019-04-27T07:13:05.408Z,975.72
2019-04-27T07:14:04.913Z,975.77
2019-04-27T07:15:05.112Z,975.68
2019-04-27T07:16:05.203Z,975.80
2019-04-27T07:17:05.494Z,975.74
2019-04-27T07:18:04.621Z,975.82
2019-04-27T07:19:04.787Z,975.68
2019-04-27T07:20:05.737Z,975.71
2019-04-27T07:21:19.418Z,975.68
2019-04-27T07:22:05.400Z,975.79
2019-04-27T07:23:04.724Z,975.70
2019-04-27T07:24:05.521Z,975.59
2019-04-27T07:25:05.182Z,975.58
2019-04-27T07:26:05.155Z,975.75
2019-04-27T07:27:05.400Z,975.64
2019-04-27T07:28:04.752Z,975.61
2019-04-27T07:29:05.235Z,975.66
2019-04-27T07:30:05.706Z,975.63
2019-04-27T07:31:05.975Z,975.63
2019-04-27T07:32:04.786Z,975.63
2019-04-27T07:33:04.838Z,975.72
2019-04-27T07:34:05.187Z,975.63
2019-04-27T07:35:05.316Z,975.66
2019-04-27T07:36:04.911Z,975.48
2019-04-27T07:37:04.951Z,975.74
2019-04-27T07:38:05.182Z,975.68
2019-04-27T07:39:04.649Z,975.68
2019-04-27T07:40:05.129Z,975.59
2019-04-27T07:41:05.246Z,975.67
2019-04-27T07:42:04.875Z,975.73
2019-04-27T07:43:04.951Z,975.70
2019-04-27T07:44:05.048Z,975.72
2019-04-27T07:45:05.522Z,975.66
2019-04-27T07:46:04.981Z,975.63
2019-04-27T07:47:04.961Z,975.52
2019-04-27T07:48:04.606Z,975.69
2019-04-27T07:49:04.856Z,975.71
2019-04-27T07:50:05.381Z,975.63
2019-04-27T07:51:05.429Z,975.54
2019-04-27T07:52:05.122Z,975.66
2019-04-27T07:53:04.855Z,975.63
2019-04-27T07:54:04.952Z,975.54
2019-04-27T07:55:05.156Z,975.71
2019-04-27T07:56:05.280Z,975.54
2019-04-27T07:57:04.697Z,975.51
2019-04-27T07:58:05.654Z,975.68
2019-04-27T07:59:05.421Z,975.59
2019-04-27T08:00:09.905Z,975.59
2019-04-27T08:01:05.592Z,975.59
2019-04-27T08:02:05.201Z,975.53
2019-04-27T08:03:05.584Z,975.53
2019-04-27T08:04:04.973Z,975.44
2019-04-27T08:05:05.145Z,975.59
2019-04-27T08:06:04.932Z,975.73
2019-04-27T08:07:04.801Z,975.53
2019-04-27T08:08:05.107Z,975.67
2019-04-27T08:09:05.324Z,975.67
2019-04-27T08:10:04.596Z,975.44
2019-04-27T08:11:04.840Z,975.58
2019-04-27T08:12:04.844Z,975.49
2019-04-27T08:13:04.643Z,975.55
2019-04-27T08:14:04.966Z,975.61
2019-04-27T08:15:05.204Z,975.64
2019-04-27T08:16:05.275Z,975.52
2019-04-27T08:17:04.683Z,975.37
2019-04-27T08:18:05.284Z,975.60
2019-04-27T08:19:05.482Z,975.49
2019-04-27T08:20:04.777Z,975.51
2019-04-27T08:21:05.092Z,975.54
2019-04-27T08:22:04.863Z,975.54
2019-04-27T08:23:05.309Z,975.54
2019-04-27T08:24:05.562Z,975.45
2019-04-27T08:25:05.000Z,975.50
2019-04-27T08:26:04.961Z,975.45
2019-04-27T08:27:05.284Z,975.44
2019-04-27T08:28:05.526Z,975.50
2019-04-27T08:29:04.900Z,975.47
2019-04-27T08:30:04.807Z,975.64
2019-04-27T08:31:05.377Z,975.58
2019-04-27T08:32:05.283Z,975.46
2019-04-27T08:33:04.877Z,975.52
2019-04-27T08:34:05.313Z,975.49
2019-04-27T08:35:04.987Z,975.49
2019-04-27T08:36:05.280Z,975.52
2019-04-27T08:37:04.966Z,975.66
2019-04-27T08:38:05.373Z,975.63
2019-04-27T08:39:05.356Z,975.43
2019-04-27T08:40:05.388Z,975.54
2019-04-27T08:41:05.681Z,975.52
2019-04-27T08:42:05.455Z,975.46
2019-04-27T08:43:09.710Z,975.46
2019-04-27T08:44:05.617Z,975.54
2019-04-27T08:45:05.814Z,975.51
2019-04-27T08:46:04.913Z,975.40
2019-04-27T08:47:06.481Z,975.51
2019-04-27T08:48:04.640Z,975.57
2019-04-27T08:49:05.127Z,975.45
2019-04-27T08:50:05.028Z,975.42
2019-04-27T08:51:05.094Z,975.45
2019-04-27T08:52:05.147Z,975.39
2019-04-27T08:53:04.793Z,975.33
2019-04-27T08:54:04.714Z,975.39
2019-04-27T08:55:05.045Z,975.33
2019-04-27T08:56:05.785Z,975.36
2019-04-27T08:57:05.281Z,975.39
2019-04-27T08:58:05.651Z,975.33
2019-04-27T08:59:05.603Z,975.28
2019-04-27T09:00:04.692Z,975.38
2019-04-27T09:01:10.306Z,975.41
2019-04-27T09:02:05.287Z,975.30
2019-04-27T09:03:10.332Z,975.43
2019-04-27T09:04:04.839Z,975.40
2019-04-27T09:05:05.249Z,975.24
2019-04-27T09:06:05.408Z,975.32
2019-04-27T09:07:04.773Z,975.26
2019-04-27T09:08:05.485Z,975.36
2019-04-27T09:09:05.157Z,975.31
2019-04-27T09:10:04.515Z,975.33
2019-04-27T09:11:04.585Z,975.22
2019-04-27T09:12:05.006Z,975.22
2019-04-27T09:13:05.336Z,975.35
2019-04-27T09:14:04.899Z,975.33
2019-04-27T09:15:05.694Z,975.24
2019-04-27T09:16:05.428Z,975.18
2019-04-27T09:17:04.828Z,975.20
2019-04-27T09:18:05.343Z,975.26
2019-04-27T09:19:05.242Z,975.26
2019-04-27T09:20:04.674Z,975.26
2019-04-27T09:21:04.852Z,975.05
2019-04-27T09:22:16.455Z,975.19
2019-04-27T09:23:05.480Z,975.16
2019-04-27T09:24:04.810Z,975.30
2019-04-27T09:25:05.288Z,975.21
2019-04-27T09:26:05.416Z,975.24
2019-04-27T09:27:04.782Z,975.21
2019-04-27T09:28:05.012Z,975.12
2019-04-27T09:29:05.159Z,975.09
2019-04-27T09:30:05.482Z,974.97
2019-04-27T09:31:04.657Z,975.05
2019-04-27T09:32:05.060Z,975.22
2019-04-27T09:33:05.472Z,975.13
2019-04-27T09:34:07.810Z,975.10
2019-04-27T09:35:07.678Z,975.10
2019-04-27T09:36:06.496Z,975.04
2019-04-27T09:37:06.459Z,975.10
2019-04-27T09:38:07.445Z,974.98
2019-04-27T09:39:08.518Z,975.03
2019-04-27T09:40:08.145Z,975.00
2019-04-27T09:41:07.561Z,975.03
2019-04-27T09:42:06.964Z,974.97
2019-04-27T09:43:09.905Z,975.12
2019-04-27T09:44:06.232Z,975.14
2019-04-27T09:45:06.934Z,975.05
2019-04-27T09:46:06.196Z,975.17
2019-04-27T09:47:06.478Z,974.95
2019-04-27T09:48:08.672Z,974.96
2019-04-27T09:49:05.253Z,974.96
2019-04-27T09:50:06.179Z,974.96
2019-04-27T09:51:06.770Z,974.94
2019-04-27T09:52:06.577Z,974.95
2019-04-27T09:53:06.813Z,974.82
2019-04-27T09:54:06.213Z,974.79
2019-04-27T09:55:08.662Z,974.84
2019-04-27T09:56:06.239Z,974.84
2019-04-27T09:57:07.404Z,974.95
2019-04-27T09:58:06.172Z,974.75
2019-04-27T09:59:06.756Z,974.90
2019-04-27T10:00:06.730Z,974.92
2019-04-27T10:01:06.602Z,974.72
2019-04-27T10:02:04.833Z,974.89
2019-04-27T10:03:06.817Z,974.77
2019-04-27T10:04:06.440Z,974.71
2019-04-27T10:05:06.359Z,974.88
2019-04-27T10:06:06.350Z,974.98
2019-04-27T10:07:06.630Z,974.98
2019-04-27T10:08:06.806Z,974.87
2019-04-27T10:09:06.177Z,974.95
2019-04-27T10:10:06.787Z,974.95
2019-04-27T10:11:06.445Z,974.95
2019-04-27T10:12:07.375Z,974.95
2019-04-27T10:13:04.515Z,974.95
2019-04-27T10:14:06.358Z,974.89
2019-04-27T10:15:06.553Z,974.89
2019-04-27T10:16:10.747Z,974.89
2019-04-27T10:17:05.398Z,974.96
2019-04-27T10:18:06.479Z,974.99
2019-04-27T10:19:05.192Z,975.02
2019-04-27T10:20:06.409Z,974.95
2019-04-27T10:21:07.784Z,974.92
2019-04-27T10:22:06.253Z,974.89
2019-04-27T10:23:06.647Z,974.97
2019-04-27T10:24:06.984Z,974.81
2019-04-27T10:25:04.996Z,974.93
2019-04-27T10:26:06.249Z,975.01
2019-04-27T10:27:08.066Z,974.98
2019-04-27T10:28:07.061Z,974.82
2019-04-27T10:29:06.538Z,974.79
2019-04-27T10:30:06.167Z,974.96
2019-04-27T10:31:06.804Z,974.96
2019-04-27T10:32:06.739Z,974.88
2019-04-27T10:33:08.304Z,974.77
2019-04-27T10:34:06.407Z,974.68
2019-04-27T10:35:07.798Z,974.74
2019-04-27T10:36:06.807Z,974.83
2019-04-27T10:37:06.463Z,974.77
2019-04-27T10:38:05.233Z,974.80
2019-04-27T10:39:05.952Z,974.74
2019-04-27T10:40:06.529Z,974.77
2019-04-27T10:41:07.660Z,974.71
2019-04-27T10:42:06.228Z,974.86
2019-04-27T10:43:09.641Z,974.83
2019-04-27T10:44:07.602Z,974.81
2019-04-27T10:45:06.683Z,974.87
2019-04-27T10:46:06.207Z,974.75
2019-04-27T10:47:06.324Z,974.67
2019-04-27T10:48:04.930Z,974.73
2019-04-27T10:49:06.222Z,974.56
2019-04-27T10:50:06.265Z,974.67
2019-04-27T10:51:07.658Z,974.59
2019-04-27T10:52:06.363Z,974.62
2019-04-27T10:53:07.371Z,974.67
2019-04-27T10:54:04.968Z,974.64
2019-04-27T10:55:06.436Z,974.55
2019-04-27T10:56:05.119Z,974.69
2019-04-27T10:57:06.466Z,974.45
2019-04-27T10:58:05.124Z,974.59
2019-04-27T10:59:09.612Z,974.53
2019-04-27T11:00:07.100Z,974.69
2019-04-27T11:01:06.247Z,974.46
2019-04-27T11:02:04.978Z,974.54
2019-04-27T11:03:10.146Z,974.63
2019-04-27T11:04:06.329Z,974.54
2019-04-27T11:05:09.435Z,974.57
2019-04-27T11:06:06.273Z,974.57
2019-04-27T11:07:07.167Z,974.51
2019-04-27T11:08:06.930Z,974.57
2019-04-27T11:09:06.371Z,974.51
2019-04-27T11:10:08.033Z,974.65
2019-04-27T11:11:04.675Z,974.60
2019-04-27T11:12:07.148Z,974.60
2019-04-27T11:13:06.605Z,974.57
2019-04-27T11:14:07.186Z,974.51
2019-04-27T11:15:07.908Z,974.60
2019-04-27T11:16:04.593Z,974.52
2019-04-27T11:17:06.595Z,974.54
2019-04-27T11:18:06.689Z,974.57
2019-04-27T11:19:07.045Z,974.55
2019-04-27T11:20:04.799Z,974.57
2019-04-27T11:21:06.440Z,974.51
2019-04-27T11:22:07.590Z,974.48
2019-04-27T11:23:12.340Z,974.51
2019-04-27T11:24:05.301Z,974.51
2019-04-27T11:25:06.591Z,974.45
2019-04-27T11:26:07.994Z,974.42
2019-04-27T11:27:06.244Z,974.27
2019-04-27T11:28:06.166Z,974.44
2019-04-27T11:29:04.906Z,974.33
2019-04-27T11:30:07.120Z,974.33
2019-04-27T11:31:04.872Z,974.47
2019-04-27T11:32:06.428Z,974.30
2019-04-27T11:33:06.624Z,974.33
2019-04-27T11:34:07.109Z,974.33
2019-04-27T11:35:06.287Z,974.27
2019-04-27T11:36:07.902Z,974.19
2019-04-27T11:37:05.927Z,974.27
2019-04-27T11:38:05.958Z,974.22
2019-04-27T11:39:04.699Z,974.22
2019-04-27T11:40:04.949Z,974.11
2019-04-27T11:41:07.431Z,974.19
2019-04-27T11:42:05.494Z,974.22
2019-04-27T11:43:10.331Z,974.25
2019-04-27T11:44:05.389Z,974.07
2019-04-27T11:45:07.024Z,974.24
2019-04-27T11:46:06.506Z,974.15
2019-04-27T11:47:06.392Z,974.06
2019-04-27T11:48:06.210Z,974.14
2019-04-27T11:49:07.155Z,974.14
2019-04-27T11:50:08.171Z,974.05
2019-04-27T11:51:06.834Z,974.10
2019-04-27T11:52:06.825Z,974.04
2019-04-27T11:53:19.404Z,973.95
2019-04-27T11:54:04.831Z,973.94
2019-04-27T11:55:06.144Z,974.03
2019-04-27T11:56:05.271Z,973.97
2019-04-27T11:57:05.453Z,974.11
2019-04-27T11:58:06.353Z,974.08
2019-04-27T11:59:04.727Z,973.96
2019-04-27T12:00:04.976Z,974.05
2019-04-27T12:01:04.528Z,974.07
2019-04-27T12:02:06.113Z,974.13
2019-04-27T12:03:06.573Z,973.90
2019-04-27T12:04:06.303Z,973.99
2019-04-27T12:05:08.185Z,973.96
2019-04-27T12:06:04.914Z,973.93
2019-04-27T12:07:06.912Z,973.76
2019-04-27T12:08:06.633Z,973.88
2019-04-27T12:09:05.463Z,973.97
2019-04-27T12:10:06.056Z,973.94
2019-04-27T12:11:06.994Z,974.00
2019-04-27T12:12:21.506Z,973.94
2019-04-27T12:13:07.775Z,974.03
2019-04-27T12:14:06.572Z,973.82
2019-04-27T12:15:06.145Z,973.77
2019-04-27T12:16:04.859Z,973.86
2019-04-27T12:17:06.694Z,973.77
2019-04-27T12:18:10.154Z,973.83
2019-04-27T12:19:06.837Z,973.86
2019-04-27T12:20:04.733Z,973.69
2019-04-27T12:21:06.518Z,973.75
2019-04-27T12:22:06.592Z,973.72
2019-04-27T12:23:07.062Z,973.89
2019-04-27T12:24:05.853Z,973.74
2019-04-27T12:25:06.820Z,973.65
2019-04-27T12:26:06.158Z,973.68
2019-04-27T12:27:06.149Z,973.59
2019-04-27T12:28:05.116Z,973.70